Los Luceros, New Mexico
Current Conditions -  °F | °C
As of 12:15 AM on Sunday 23 Nov 2014 (Local Time) from KLAM Reporting Station
Scattered Clouds Scattered Clouds  
Wind Chill: 40°   Ceiling: Unl
Heat Index: 40°   Visibility: 10mi
Dew Point: 17°   Wind: 3mph
Humidity: 40%   Direction: 200°SSW
Pressure: 29.83"   Gusts: NA
Location:  36.1112°N, 106.046°W
Report Text: KLAM 230715Z AUTO 20003KT 10SM SCT120 04/M08 A2983 RMK AO2 T00421084
Loading
Personal Weather Stations






























Interactive Weather Map New forecast layout! Learn more

10-Day Weather Forecast

Advertisements
Track Severe Weather on mobile